Terminal Aerodrome Forecast
Issued by NWS

Home | Current Version | Previous Version | Text Only | Print | Product List | Glossary On
Versions: 1 2 3 4 5 6 7 8 9 10 11 12 13
546
FTPA31 PHFO 192340
TAFHMK
TAF
PHMK 192340Z 2000/2024 06016G25KT P6SM SCT035
     FM200600 05011G16KT P6SM SCT025 BKN045
     FM201000 04008KT P6SM VCSH SCT025 BKN040
     FM202000 06010G15KT P6SM VCSH SCT030 SCT045
      AMD NOT SKED=

USA.gov is the U.S. government's official web portal to all federal, state and local government web resources and services.